Tiempo atmosférico en la estación meteorológica de Cervantes, Lugo (1020 m.)

Fecha
DESCASC
Temp. máxima en grados centígrados (hora)
DESCASC
Temp. mínima en grados centígrados (hora)
DESCASC
Temp. media en grados centígrados
DESCASC
Racha de viento máxima en m/sg (hora)
DESCASC
Velocidad máxima media en intervalos de 10 minutos(hora)
DESCASC
Precipitaciones diarias en mm
DESCASC
Precipitaciones de 00:00 a 06:00 en mm
DESCASC
Precipitaciones de 06:00 a 12:00 en mm
DESCASC
Precipitaciones de 12:00 a 18:00 en mm
DESCASC
Precipitaciones de 18:00 a 24:00 en mm
DESCASC
10-12-2017 10.6 (12:40) 1.5 (23:50) 6.1 24.72 (17:40) 8.06 (17:50) 105.8 0.2 9.4 46.2 50
09-12-2017 9 (14:50) 4.9 (06:30) 7 16.67 (18:40) 5.83 (18:40) 8.2 2 3.2 2.4 0.6
08-12-2017 8.6 (14:20) 5.3 (23:59) 7 6.67 (06:20) 2.22 (06:10) 11.6 0.4 6.2 4.4 0.6
07-12-2017 8.2 (13:00) 4.8 (00:00) 6.5 6.39 (14:20) 3.33 (14:20) 16.2 0 0 4.6 11.6
06-12-2017 11.1 (15:20) 3.2 (00:00) 7.2 5 (21:40) 2.5 (21:40) 0 0 0 0 0
05-12-2017 11 (16:00) -0.6 (-00:0) 5.2 3.89 (00:10) 1.94 (00:20) 0 0 0 0 0
04-12-2017 9.2 (16:00) -0.8 (-00:0) 4.2 6.11 (13:50) 3.61 (13:20) 0 0 0 0 0
03-12-2017 6.7 (14:10) -1.2 (-00:0) 2.7 3.89 (16:00) 2.5 (19:00) 0 0 0 0 0
02-12-2017 4.2 (14:20) -1.3 (-00:0) 1.4 6.11 (02:40) 2.5 (00:30) 0 0 0 0 0
01-12-2017 2 (11:00) -1.3 (-00:0) 0.4 10.28 (13:20) 4.17 (15:10) 8.4 0.8 4.6 3 0
30-11-2017 3.3 (13:00) -3.1 (-00:0) 0.1 6.39 (20:20) 2.22 (13:20) 0.4 0 0 0.2 0.2
29-11-2017 4.4 (15:00) -1.3 (-00:0) 1.6 5.56 (02:40) 2.78 (19:00) 2.8 0.2 1.8 0.6 0.2
28-11-2017 9.9 (10:20) 2.7 (00:00) 6.3 5.28 (15:10) 2.5 (18:20) 0.4 0 0 0 0.4
27-11-2017 12.1 (16:10) 1.1 (00:00) 6.6 3.33 (13:20) 1.94 (13:20) 0 0 0 0 0
26-11-2017 10.1 (14:40) -0.9 (-00:0) 4.6 10 (13:40) 6.11 (13:40) 0 0 0 0 0
25-11-2017 7.1 (00:00) 0.4 (00:00) 3.7 5.83 (03:40) 2.5 (01:00) 5.8 5.6 0.2 0 0
24-11-2017 10.4 (13:10) 7.1 (00:00) 8.7 10 (03:10) 4.72 (01:00) 24.2 2.4 0.6 6 15.2
23-11-2017 14.5 (14:20) 8.1 (00:00) 11.3 13.89 (00:40) 6.67 (13:30) 2 1.4 0 0.2 0.4
22-11-2017 14.4 (14:30) 8.6 (00:00) 11.5 17.78 (18:20) 8.33 (17:50) 2.8 0 0 0 2.8
21-11-2017 15.2 (12:00) 7.6 (00:00) 11.4 9.72 (23:10) 5 (21:50) 0 0 0 0 0
20-11-2017 17.1 (15:20) 9.1 (00:00) 13.1 4.17 (14:20) 2.78 (14:10) 0 0 0 0 0
19-11-2017 18.5 (16:10) 7.4 (00:00) 13 3.89 (13:30) 2.22 (14:30) 0 0 0 0 0
18-11-2017 16.4 (14:30) 7.1 (00:00) 11.7 5.83 (13:50) 3.33 (13:20) 0 0 0 0 0
17-11-2017 16.4 (13:50) 7 (00:00) 11.7 4.17 (13:00) 2.22 (12:20) 0 0 0 0 0
16-11-2017 18 (14:00) 7.4 (00:00) 12.7 3.61 (16:50) 1.94 (16:50) 0 0 0 0 0
15-11-2017 17.2 (13:10) 9 (00:00) 13.1 8.33 (11:30) 4.17 (10:20) 0 0 0 0 0

Gráficas

Temp. máximas Temp. mínimas Temp. medias Precipitaciones Rachas de viento máximas Velocidades máximas media en intervalos de 10 minutos

Datos horarios

Fecha y hora oficial Temperatura (ºC) Velocidad del viento (km/h) Dirección del viento Racha (km/h) Dirección de racha Precipitación (mm) Presión (hPa) Tendencia (hPa) Humedad (%)
2017-12-14 23:00:00 4.1 6 Sudeste 27 Noroeste 0 -- -- 94
2017-12-14 22:00:00 3.8 13 Norte 45 Norte 0 -- -- 90
2017-12-14 21:00:00 4.2 5 Nordeste 36 Norte 0 -- -- 95
2017-12-14 20:00:00 4.5 14 Nordeste 36 Norte 0.4 -- -- 92
2017-12-14 19:00:00 5.6 17 Norte 40 Norte 0.4 -- -- 95
2017-12-14 18:00:00 6.4 13 Norte 27 Norte 0.8 -- -- 97
2017-12-14 17:00:00 7.4 4 Nordeste 29 Norte 1.4 -- -- 97
2017-12-14 16:00:00 7.5 7 Nordeste 23 Oeste 0.2 -- -- 97
2017-12-14 15:00:00 7.9 11 Norte 27 Nordeste 1.8 -- -- 98
2017-12-14 14:00:00 8.1 5 Nordeste 18 Norte 1.6 -- -- 98
2017-12-14 13:00:00 8.1 5 Nordeste 22 Nordeste 1 -- -- 98
2017-12-14 12:00:00 7.8 4 Nordeste 17 Norte 0.8 -- -- 98
2017-12-14 11:00:00 7.7 5 Este 19 Norte 1 -- -- 98
2017-12-14 10:00:00 7.5 8 Nordeste 23 Norte 0.8 -- -- 98
2017-12-14 09:00:00 6.6 4 Sur 10 Noroeste 2.8 -- -- 97
2017-12-14 08:00:00 6.7 3 Nordeste 27 Nordeste 6.4 -- -- 97
2017-12-14 07:00:00 8.4 15 Nordeste 43 Nordeste 0.8 -- -- 93
2017-12-14 06:00:00 9 7 Este 28 Norte 0.6 -- -- 96
2017-12-14 05:00:00 8 4 Nordeste 22 Noroeste 1 -- -- 97
2017-12-14 04:00:00 8.1 10 Norte 32 Norte 2.4 -- -- 95
2017-12-14 03:00:00 8.5 13 Nordeste 30 Noroeste 3.2 -- -- 95
2017-12-14 02:00:00 9 10 Nordeste 37 Norte 3 -- -- 95
2017-12-14 01:00:00 9.4 12 Norte 37 Nordeste 1.6 -- -- 95
2017-12-14 00:00:00 9.1 16 Norte 39 Noroeste 0.6 -- -- 95
2017-12-13 23:00:00 9.2 15 Norte 39 Norte 0 -- -- 95
2017-12-13 22:00:00 9.4 13 Nordeste 37 Nordeste 0.4 -- -- 94
2017-12-13 21:00:00 9.2 7 Este 27 Norte 0.2 -- -- 94
2017-12-13 20:00:00 9.2 8 Nordeste 28 Norte 0 -- -- 92
2017-12-13 19:00:00 8.4 10 Nordeste 30 Norte 0.2 -- -- 93
2017-12-13 18:00:00 7.8 6 Nordeste 24 Nordeste 0.2 -- -- 93
2017-12-13 17:00:00 7.4 6 Este 26 Sur 0 -- -- 93
2017-12-13 16:00:00 6.8 9 Sudoeste 24 Sudoeste 0.2 -- -- 94
2017-12-13 15:00:00 6.1 9 Sur 27 Sudoeste 0 -- -- 92
2017-12-13 14:00:00 6.3 7 Sudoeste 26 Noroeste 0 -- -- 91
2017-12-13 13:00:00 6.5 7 Sudoeste 28 Sudoeste 0 -- -- 87
2017-12-13 12:00:00 6.8 3 Sudeste 17 Sur 0 -- -- 88
2017-12-13 11:00:00 6.1 8 Sur 17 Sur 0 -- -- 88
2017-12-13 10:00:00 5.7 5 Sudoeste 18 Sudoeste 0 -- -- 89
2017-12-13 09:00:00 5.5 8 Oeste 18 Noroeste 0 -- -- 91
2017-12-13 08:00:00 5.4 5 Nordeste 21 Oeste 0.2 -- -- 95
2017-12-13 07:00:00 5.1 9 Sur 22 Sur 0 -- -- 96
2017-12-13 06:00:00 4.7 6 Sur 24 Sudeste 0.2 -- -- 95
2017-12-13 05:00:00 4.1 10 Sudoeste 32 Sur 0.2 -- -- 98
2017-12-13 04:00:00 3 6 Sur 14 Sudeste 0.2 -- -- 98
2017-12-13 03:00:00 2.3 3 Noroeste 9 Sudeste 0.4 -- -- 98
2017-12-13 02:00:00 2.2 4 Sur 12 Sudeste 0.2 -- -- 98
2017-12-13 01:00:00 1.8 2 Oeste 6 Oeste 0.2 -- -- 97
2017-12-13 00:00:00 1.6 3 Sudoeste 6 Sudoeste 0 -- -- 97
2017-12-12 23:00:00 1.8 0 Calma 10 Sur 0 -- -- 95
2017-12-12 22:00:00 2.3 5 Sudoeste 13 Sur 0 -- -- 94
2017-12-12 21:00:00 1.8 4 Sur 9 Sudoeste 0 -- -- 95
2017-12-12 20:00:00 1.6 2 Este 6 Sur 0 -- -- 97
2017-12-12 19:00:00 1.4 2 Nordeste 6 Nordeste 0 -- -- 96
2017-12-12 18:00:00 1.4 3 Nordeste 10 Sur 0 -- -- 96
2017-12-12 17:00:00 1.8 3 Sur 9 Norte 0.2 -- -- 94
2017-12-12 16:00:00 2 5 Noroeste 16 Norte 0 -- -- 90
2017-12-12 15:00:00 2.5 3 Noroeste 15 Norte 0 -- -- 89
2017-12-12 14:00:00 -- -- -- -- -- -- -- -- --
2017-12-12 13:00:00 -- -- -- -- -- -- -- -- --
2017-12-12 12:00:00 -- -- -- -- -- -- -- -- --
2017-12-12 11:00:00 -- -- -- -- -- -- -- -- --
2017-12-12 10:00:00 -- -- -- -- -- -- -- -- --
2017-12-12 09:00:00 -- -- -- -- -- -- -- -- --
2017-12-12 08:00:00 -- -- -- -- -- -- -- -- --
2017-12-12 07:00:00 -- -- -- -- -- -- -- -- --
2017-12-12 06:00:00 -- -- -- -- -- -- -- -- --
2017-12-12 05:00:00 -- -- -- -- -- -- -- -- --
2017-12-12 04:00:00 -- -- -- -- -- -- -- -- --
2017-12-12 03:00:00 -- -- -- -- -- -- -- -- --
2017-12-12 02:00:00 -- -- -- -- -- -- -- -- --
2017-12-12 01:00:00 -- -- -- -- -- -- -- -- --
2017-12-12 00:00:00 -- -- -- -- -- -- -- -- --
2017-12-11 23:00:00 -- -- -- -- -- -- -- -- --
2017-12-11 22:00:00 -- -- -- -- -- -- -- -- --
2017-12-11 21:00:00 -- -- -- -- -- -- -- -- --
2017-12-11 20:00:00 -- -- -- -- -- -- -- -- --
2017-12-11 19:00:00 -- -- -- -- -- -- -- -- --
2017-12-11 18:00:00 -- -- -- -- -- -- -- -- --
2017-12-11 17:00:00 -- -- -- -- -- -- -- -- --
2017-12-11 16:00:00 -- -- -- -- -- -- -- -- --
2017-12-11 15:00:00 -- -- -- -- -- -- -- -- --
2017-12-11 14:00:00 -- -- -- -- -- -- -- -- --
2017-12-11 13:00:00 -- -- -- -- -- -- -- -- --
2017-12-11 12:00:00 -- -- -- -- -- -- -- -- --
2017-12-11 11:00:00 -- -- -- -- -- -- -- -- --
2017-12-11 10:00:00 -- -- -- -- -- -- -- -- --
2017-12-11 09:00:00 -- -- -- -- -- -- -- -- --
2017-12-11 08:00:00 -- -- -- -- -- -- -- -- --
2017-12-11 07:00:00 -- -- -- -- -- -- -- -- --
2017-12-11 06:00:00 -- -- -- -- -- -- -- -- --
2017-12-11 05:00:00 -0.1 0 Calma -- -- 0.2 -- -- 96
2017-12-11 04:00:00 0 0 Calma 31 Noroeste 0 -- -- 96
2017-12-11 03:00:00 1.9 10 Norte 39 Norte 1 -- -- 91
2017-12-11 02:00:00 2 11 Nordeste 40 Nordeste 3 -- -- 93
2017-12-11 01:00:00 1.8 5 Nordeste 17 Sur 2.2 -- -- 96
2017-12-11 00:00:00 1.5 4 Nordeste 33 Norte 6.6 -- -- 94
2017-12-10 23:00:00 3.1 15 Norte 51 Norte 7.2 -- -- 92
2017-12-10 22:00:00 4.5 21 Norte 64 Nordeste 11.8 -- -- 91
2017-12-10 21:00:00 10.1 24 Sudoeste 75 Oeste 9.4 -- -- 83
2017-12-10 20:00:00 10.2 19 Oeste 57 Oeste 8.4 -- -- 86
2017-12-10 19:00:00 9.6 19 Sur 56 Oeste 6.6 -- -- 88
2017-12-10 18:00:00 10.3 26 Sudoeste 89 Oeste 7.2 -- -- 85
2017-12-10 17:00:00 9.5 21 Sudoeste 45 Sudoeste 5.6 -- -- 94
2017-12-10 16:00:00 7 7 Sudeste 34 Norte 10.2 -- -- 96
2017-12-10 15:00:00 7.5 10 Nordeste 51 Noroeste 12 -- -- 92
2017-12-10 14:00:00 10.4 24 Sudoeste 51 Sudoeste 7 -- -- 86
2017-12-10 13:00:00 10.4 17 Sudoeste 58 Sudoeste 4.2 -- -- 86
2017-12-10 12:00:00 10.3 19 Sur 50 Sudoeste 4.2 -- -- 88
2017-12-10 11:00:00 10.3 18 Sur 52 Oeste 2.8 -- -- 88
2017-12-10 10:00:00 9.9 12 Este 60 Oeste 1 -- -- 90
2017-12-10 09:00:00 9.6 15 Sur 50 Sudoeste 0.6 -- -- 89
2017-12-10 08:00:00 9.5 13 Oeste 51 Norte 0.6 -- -- 88
2017-12-10 07:00:00 9.2 17 Oeste 44 Sur 0.2 -- -- 87
2017-12-10 06:00:00 8.6 14 Oeste 39 Sudoeste 0 -- -- 89
2017-12-10 05:00:00 8 10 Sudoeste 35 Sudoeste 0 -- -- 89
2017-12-10 04:00:00 8.3 15 Sudoeste 38 Sudoeste 0.2 -- -- 88
2017-12-10 03:00:00 8.4 10 Este 35 Sudoeste 0 -- -- 87
2017-12-10 02:00:00 8.3 18 Oeste 40 Sudoeste 0 -- -- 87
2017-12-10 01:00:00 8.2 11 Sur 36 Oeste 0 -- -- 88
2017-12-10 00:00:00 8.5 6 Este 30 Oeste 0 -- -- 85
2017-12-09 23:00:00 8.5 14 Norte 40 Norte 0 -- -- 88
2017-12-09 22:00:00 8.4 8 Nordeste 31 Norte 0 -- -- 89
2017-12-09 21:00:00 8.5 6 Este 42 Nordeste 0 -- -- 90
2017-12-09 20:00:00 8.5 18 Norte 55 Norte 0 -- -- 91
2017-12-09 19:00:00 8.7 17 Norte 60 Norte 0.6 -- -- 93
2017-12-09 18:00:00 8.9 18 Norte 48 Norte 0.2 -- -- 92
2017-12-09 17:00:00 8.9 18 Norte 37 Nordeste 0.8 -- -- 94
2017-12-09 16:00:00 8.6 11 Norte 36 Norte 0.2 -- -- 96
2017-12-09 15:00:00 8.9 12 Norte 38 Norte 0 -- -- 98
2017-12-09 14:00:00 8.4 10 Sur 32 Norte 0.2 -- -- 99
2017-12-09 13:00:00 8.4 11 Norte 26 Norte 1 -- -- 99
2017-12-09 12:00:00 8.1 9 Norte 31 Norte 0.4 -- -- 99
2017-12-09 11:00:00 7.7 8 Nordeste 27 Nordeste 1.2 -- -- 99
2017-12-09 10:00:00 6.6 8 Norte 18 Norte 0.4 -- -- 99
2017-12-09 09:00:00 5.4 2 Oeste 9 Sudeste 0.4 -- -- 99
2017-12-09 08:00:00 5.3 2 Nordeste 8 Nordeste 0 -- -- 99
2017-12-09 07:00:00 4.9 2 Sur 5 Sur 0.8 -- -- 98
2017-12-09 06:00:00 5 2 Sur 6 Nordeste 1 -- -- 98
2017-12-09 05:00:00 5.1 2 Sur 7 Este 0.6 -- -- 98
2017-12-09 04:00:00 5.1 0 Calma 6 Sudeste 0.4 -- -- 98
2017-12-09 03:00:00 5.3 0 Calma 8 Norte 0 -- -- 98
2017-12-09 02:00:00 5.3 5 Norte 12 Norte 0 -- -- 98
2017-12-09 01:00:00 5.3 4 Norte 10 Noroeste 0 -- -- 98
2017-12-09 00:00:00 5.3 4 Norte 11 Noroeste 0 -- -- 98
2017-12-08 23:00:00 5.5 3 Norte 10 Noroeste 0 -- -- 98
2017-12-08 22:00:00 6 3 Norte 9 Nordeste 0 -- -- 98
2017-12-08 21:00:00 6 3 Norte 11 Nordeste 0.2 -- -- 98
2017-12-08 20:00:00 6.3 3 Nordeste 8 Norte 0.2 -- -- 98
2017-12-08 19:00:00 6.6 2 Nordeste 15 Nordeste 0.2 -- -- 97
2017-12-08 18:00:00 7.1 4 Norte 10 Norte 0.6 -- -- 97
2017-12-08 17:00:00 8.3 3 Norte 12 Norte 0.8 -- -- 96
2017-12-08 16:00:00 8.3 2 Nordeste 8 Nordeste 0.8 -- -- 96
2017-12-08 15:00:00 8.3 5 Norte 12 Nordeste 1 -- -- 96
2017-12-08 14:00:00 8.4 4 Nordeste 14 Noroeste 0.4 -- -- 96
2017-12-08 13:00:00 8.3 6 Noroeste 14 Noroeste 0.8 -- -- 95
2017-12-08 12:00:00 8.2 6 Norte 18 Norte 1.4 -- -- 95
2017-12-08 11:00:00 8.2 4 Norte 13 Nordeste 2 -- -- 96
2017-12-08 10:00:00 8 6 Norte 21 Norte 1.6 -- -- 97
2017-12-08 09:00:00 8 6 Norte 18 Norte 0.6 -- -- 97
2017-12-08 08:00:00 8 7 Norte 23 Norte 0.4 -- -- 97
2017-12-08 07:00:00 8.1 5 Nordeste 24 Nordeste 0.2 -- -- 97
2017-12-08 06:00:00 8.1 7 Nordeste 22 Noroeste 0 -- -- 96
2017-12-08 05:00:00 8.1 3 Este 16 Nordeste 0.4 -- -- 96
2017-12-08 04:00:00 8.1 3 Sudeste 15 Noroeste 0 -- -- 96
2017-12-08 03:00:00 8 5 Sudeste 14 Norte 0 -- -- 96
2017-12-08 02:00:00 8 5 Sudeste 16 Norte 0 -- -- 96
2017-12-08 01:00:00 8 4 Nordeste 21 Norte 0 -- -- 96
2017-12-08 00:00:00 7.9 4 Noroeste 17 Sudoeste 0 -- -- 97
2017-12-07 23:00:00 7.9 4 Sur 17 Noroeste 0 -- -- 96
2017-12-07 22:00:00 8 4 Nordeste 16 Nordeste 0.4 -- -- 97
2017-12-07 21:00:00 6.9 2 Sudeste 12 Sur 4 -- -- 96
2017-12-07 20:00:00 7 3 Sudeste 21 Sur 4.2 -- -- 95
2017-12-07 19:00:00 7.2 5 Sur 18 Sur 3 -- -- 95
2017-12-07 18:00:00 7.7 8 Sur 17 Sur 1 -- -- 94
2017-12-07 17:00:00 7.9 8 Sur 23 Sudoeste 1.4 -- -- 92
2017-12-07 16:00:00 7.9 7 Sudoeste 22 Sudoeste 0.8 -- -- 90
2017-12-07 15:00:00 7.2 11 Sudoeste 23 Sudoeste 0.8 -- -- 88
2017-12-07 14:00:00 7.2 8 Sur 18 Sudeste 0.6 -- -- 89
2017-12-07 13:00:00 8.2 4 Sur 16 Sudoeste 0 -- -- 72
2017-12-07 12:00:00 7.2 6 Sudeste 17 Sur 0 -- -- 68
2017-12-07 11:00:00 7 8 Sur 14 Sur 0 -- -- 63
2017-12-07 10:00:00 5.3 2 Sudoeste 8 Sudoeste 0 -- -- 62
2017-12-07 09:00:00 5.8 4 Sudoeste 13 Oeste 0 -- -- 44
2017-12-07 08:00:00 6.2 6 Sudoeste 12 Sudoeste 0 -- -- 40
2017-12-07 07:00:00 4.8 3 Sudoeste 8 Sudoeste 0 -- -- 49
2017-12-07 06:00:00 6.4 5 Sudoeste 13 Oeste 0 -- -- 41
2017-12-07 05:00:00 6.4 6 Sur 13 Sur 0 -- -- 35
2017-12-07 04:00:00 6.4 4 Sudoeste 15 Oeste 0 -- -- 35
2017-12-07 03:00:00 5.4 8 Oeste 12 Oeste 0 -- -- 39
2017-12-07 02:00:00 6.2 6 Oeste 13 Oeste 0 -- -- 37
2017-12-07 01:00:00 6.1 3 Sur 13 Sur 0 -- -- 41
2017-12-07 00:00:00 5.9 3 Oeste 10 Oeste 0 -- -- 41
2017-12-06 23:00:00 5.9 4 Oeste 15 Noroeste 0 -- -- 43
2017-12-06 22:00:00 6.8 6 Oeste 18 Oeste 0 -- -- 40
2017-12-06 21:00:00 6.3 3 Sudoeste 15 Oeste 0 -- -- 37
2017-12-06 20:00:00 5.3 4 Oeste 12 Oeste 0 -- -- 43
2017-12-06 19:00:00 5.5 3 Noroeste 8 Noroeste 0 -- -- 41
2017-12-06 18:00:00 5.6 4 Noroeste 9 Noroeste 0 -- -- 43
2017-12-06 17:00:00 7.5 3 Oeste 8 Noroeste 0 -- -- 40
2017-12-06 16:00:00 8.9 4 Norte 9 Norte 0 -- -- 40
2017-12-06 15:00:00 10.5 4 Sudoeste 10 Oeste 0 -- -- 33
2017-12-06 14:00:00 10.1 4 Sur 13 Sur 0 -- -- 42
2017-12-06 13:00:00 8.3 6 Sur 14 Sur 0 -- -- 47
2017-12-06 12:00:00 9.5 8 Sur 14 Sur 0 -- -- 45
2017-12-06 11:00:00 8.1 0 Calma 8 Sudoeste 0 -- -- 47
2017-12-06 10:00:00 8.7 3 Sur 9 Sur 0 -- -- 42
2017-12-06 09:00:00 4.2 4 Noroeste 9 Sudoeste 0 -- -- 46
2017-12-06 08:00:00 3.2 2 Este 10 Sudoeste 0 -- -- 52
2017-12-06 07:00:00 3.4 0 Calma 6 Sur 0 -- -- 50
2017-12-06 06:00:00 3.8 4 Noroeste 7 Oeste 0 -- -- 50
2017-12-06 05:00:00 4.6 3 Noroeste 9 Oeste 0 -- -- 44
2017-12-06 04:00:00 4.2 3 Noroeste 6 Norte 0 -- -- 45
2017-12-06 03:00:00 4.8 3 Noroeste 6 Norte 0 -- -- 44
2017-12-06 02:00:00 4.9 4 Noroeste 5 Noroeste 0 -- -- 46
2017-12-06 01:00:00 4.7 3 Norte 5 Noroeste 0 -- -- 46
2017-12-06 00:00:00 5 0 Calma 7 Nordeste 0 -- -- 45
2017-12-05 23:00:00 3.7 3 Sudeste 7 Sudeste 0 -- -- 57
2017-12-05 22:00:00 3.8 0 Calma 5 Sudeste 0 -- -- 59
2017-12-05 21:00:00 4.1 3 Sudeste 5 Sudeste 0 -- -- 59
2017-12-05 20:00:00 3.8 3 Este 6 Sur 0 -- -- 63
2017-12-05 19:00:00 5 0 Calma 8 Sur 0 -- -- 60
2017-12-05 18:00:00 5.5 0 Calma 6 Norte 0 -- -- 59
2017-12-05 17:00:00 6.3 0 Calma 6 Norte 0 -- -- 58
2017-12-05 16:00:00 11 2 Sudoeste 8 Sudeste 0 -- -- 46
2017-12-05 15:00:00 9.6 4 Sur 11 Sur 0 -- -- 54
2017-12-05 14:00:00 9 5 Sur 11 Sur 0 -- -- 57
2017-12-05 13:00:00 7.7 6 Sur 11 Sur 0 -- -- 61
2017-12-05 12:00:00 6.7 5 Sur 9 Sur 0 -- -- 65
2017-12-05 11:00:00 6.1 3 Sudeste 9 Sudeste 0 -- -- 66
2017-12-05 10:00:00 3.8 5 Nordeste 9 Nordeste 0 -- -- 71
2017-12-05 09:00:00 0.1 4 Nordeste 7 Nordeste 0 -- -- 88
2017-12-05 08:00:00 -0.3 3 Este 6 Sudeste 0 -- -- 88
2017-12-05 07:00:00 0 3 Este 7 Este 0 -- -- 86
2017-12-05 06:00:00 0.6 3 Este 5 Este 0 -- -- 83
2017-12-05 05:00:00 0.3 2 Este 5 Sudeste 0 -- -- 84
2017-12-05 04:00:00 1.4 2 Este 5 Sudeste 0 -- -- 76
2017-12-05 03:00:00 1.3 2 Este 6 Este 0 -- -- 78
2017-12-05 02:00:00 2.5 3 Este 14 Sudeste 0 -- -- 72
2017-12-05 01:00:00 2.8 3 Sudeste 14 Sur 0 -- -- 71
2017-12-05 00:00:00 3.5 7 Sur 17 Sudeste 0 -- -- 67
2017-12-04 23:00:00 3.8 3 Sur 14 Sur 0 -- -- 66
2017-12-04 22:00:00 2.7 3 Sur 8 Sur 0 -- -- 71
2017-12-04 21:00:00 3.6 3 Noroeste 7 Norte 0 -- -- 68
2017-12-04 20:00:00 3.9 3 Noroeste 5 Norte 0 -- -- 68
2017-12-04 19:00:00 4 0 Calma 6 Norte 0 -- -- 67
2017-12-04 18:00:00 4.3 2 Norte 6 Norte 0 -- -- 65
2017-12-04 17:00:00 5.7 2 Noroeste 8 Noroeste 0 -- -- 59
2017-12-04 16:00:00 9.2 3 Oeste 14 Sudoeste 0 -- -- 46
2017-12-04 15:00:00 8.2 8 Sudoeste 22 Sur 0 -- -- 51
2017-12-04 14:00:00 7.9 11 Sur 22 Sur 0 -- -- 53
2017-12-04 13:00:00 7.5 10 Sur 17 Sur 0 -- -- 57
2017-12-04 12:00:00 7.6 3 Sur 10 Sur 0 -- -- 59
2017-12-04 11:00:00 5.9 4 Sur 10 Sudeste 0 -- -- 60
2017-12-04 10:00:00 5.2 2 Sur 7 Sur 0 -- -- 62
2017-12-04 09:00:00 0.7 2 Sudeste 5 Sudeste 0 -- -- 78
2017-12-04 08:00:00 -0.3 2 Nordeste 6 Este 0 -- -- 82
2017-12-04 07:00:00 -0.3 3 Nordeste 6 Norte 0 -- -- 83
2017-12-04 06:00:00 -0.4 3 Este 6 Nordeste 0 -- -- 82
2017-12-04 05:00:00 0.3 0 Calma 7 Norte 0 -- -- 78
2017-12-04 04:00:00 0.4 0 Calma 5 Norte 0 -- -- 81
2017-12-04 03:00:00 0.3 4 Norte 5 Norte 0 -- -- 83
2017-12-04 02:00:00 -0.3 0 Calma 5 Norte 0 -- -- 86
2017-12-04 01:00:00 0.3 0 Calma 5 Norte 0 -- -- 82
2017-12-04 00:00:00 0.5 2 Noroeste 3 Norte 0 -- -- 82
2017-12-03 23:00:00 0.8 2 Nordeste 4 Norte 0 -- -- 80
2017-12-03 22:00:00 0.8 0 Calma 5 Norte 0 -- -- 80
2017-12-03 21:00:00 1.1 4 Noroeste 7 Norte 0 -- -- 79
2017-12-03 20:00:00 1.1 5 Noroeste 13 Norte 0 -- -- 81
2017-12-03 19:00:00 1.9 9 Norte 13 Noroeste 0 -- -- 76
2017-12-03 18:00:00 2.1 8 Noroeste 14 Noroeste 0 -- -- 78
2017-12-03 17:00:00 3 7 Norte 12 Norte 0 -- -- 76
2017-12-03 16:00:00 5.3 6 Norte 14 Noroeste 0 -- -- 68
2017-12-03 15:00:00 6.1 5 Norte 11 Nordeste 0 -- -- 63
2017-12-03 14:00:00 6.4 4 Sudoeste 8 Oeste 0 -- -- 66
2017-12-03 13:00:00 5 6 Sur 10 Sur 0 -- -- 73
2017-12-03 12:00:00 4.7 3 Sur 9 Sur 0 -- -- 76
2017-12-03 11:00:00 3.3 3 Sur 6 Sur 0 -- -- 80
2017-12-03 10:00:00 3.1 0 Calma 8 Sur 0 -- -- 82
2017-12-03 09:00:00 -1 2 Oeste 9 Norte 0 -- -- 92
2017-12-03 08:00:00 -0.3 5 Noroeste 9 Noroeste 0 -- -- 86
2017-12-03 07:00:00 -0.7 3 Norte 6 Sur 0 -- -- 92
2017-12-03 06:00:00 -0.8 3 Norte 7 Noroeste 0 -- -- 93
2017-12-03 05:00:00 -1.2 2 Noroeste 8 Noroeste 0 -- -- 95
2017-12-03 04:00:00 -0.3 6 Norte 9 Noroeste 0 -- -- 94
2017-12-03 03:00:00 -0.4 3 Norte 9 Norte 0 -- -- 93
2017-12-03 02:00:00 -0.1 5 Norte 10 Noroeste 0 -- -- 94
2017-12-03 01:00:00 -0.4 3 Oeste 10 Noroeste 0 -- -- 89
2017-12-03 00:00:00 0.2 5 Norte 10 Noroeste 0 -- -- 90
2017-12-02 23:00:00 0 6 Norte 14 Noroeste 0 -- -- 90
2017-12-02 22:00:00 0.5 6 Norte 14 Norte 0 -- -- 91
2017-12-02 21:00:00 0.2 6 Norte 16 Noroeste 0 -- -- 94
2017-12-02 20:00:00 0.3 6 Norte 15 Norte 0 -- -- 93
2017-12-02 19:00:00 0.5 8 Norte 17 Norte 0 -- -- 92
2017-12-02 18:00:00 0.5 8 Norte 15 Norte 0 -- -- 90
2017-12-02 17:00:00 1.9 5 Noroeste 20 Nordeste 0 -- -- 86
2017-12-02 16:00:00 3.6 6 Norte 17 Noroeste 0 -- -- 76
2017-12-02 15:00:00 3 5 Sur 21 Nordeste 0 -- -- 82
2017-12-02 14:00:00 3.7 6 Norte 21 Nordeste 0 -- -- 80
2017-12-02 13:00:00 3.2 6 Norte 13 Norte 0 -- -- 84
2017-12-02 12:00:00 1.2 7 Norte 17 Noroeste 0 -- -- 90
2017-12-02 11:00:00 0.3 9 Norte 18 Noroeste 0 -- -- 94
2017-12-02 10:00:00 -0.2 8 Norte 16 Noroeste 0 -- -- 94
2017-12-02 09:00:00 -0.4 6 Norte 14 Norte 0 -- -- 93
2017-12-02 08:00:00 -0.6 8 Norte 18 Norte 0 -- -- 93
2017-12-02 07:00:00 -0.7 8 Norte 17 Sudeste 0 -- -- 94
2017-12-02 06:00:00 -0.8 8 Norte 17 Norte 0 -- -- 95
2017-12-02 05:00:00 -0.9 5 Norte 14 Noroeste 0 -- -- 95
2017-12-02 04:00:00 -0.8 7 Norte 15 Norte 0 -- -- 94
2017-12-02 03:00:00 -0.7 6 Norte 22 Noroeste 0 -- -- 94
2017-12-02 02:00:00 -1.2 7 Norte 14 Norte 0 -- -- 92
2017-12-02 01:00:00 -1 5 Norte 19 Noroeste 0 -- -- 95
2017-12-02 00:00:00 -0.9 7 Norte 16 Nordeste 0 -- -- 94
2017-12-01 23:00:00 -0.8 7 Norte 15 Norte 0 -- -- 93
2017-12-01 22:00:00 -1.1 8 Norte 15 Norte 0 -- -- 91
2017-12-01 21:00:00 -1.1 7 Norte 15 Norte 0 -- -- 88
2017-12-01 20:00:00 -1.2 7 Norte 16 Noroeste 0 -- -- 91
2017-12-01 19:00:00 -1.2 8 Norte 15 Norte 0 -- -- 91
2017-12-01 18:00:00 -0.7 8 Norte 21 Noroeste 0 -- -- 92
2017-12-01 17:00:00 0.2 7 Norte 22 Norte 0 -- -- 91
2017-12-01 16:00:00 1.2 6 Norte 30 Norte 0 -- -- 90
2017-12-01 15:00:00 1 12 Norte 29 Norte 0 -- -- 93
2017-12-01 14:00:00 0.7 10 Norte 37 Nordeste 2 -- -- 97
2017-12-01 13:00:00 1.4 7 Norte 28 Este 1 -- -- 96
2017-12-01 12:00:00 1.9 9 Norte 21 Norte 1.6 -- -- 97
2017-12-01 11:00:00 2 6 Norte 30 Noroeste 1 -- -- 95
2017-12-01 10:00:00 1.8 8 Norte 25 Noroeste 0.4 -- -- 96
2017-12-01 09:00:00 1.6 9 Norte 29 Noroeste 1 -- -- 95
2017-12-01 08:00:00 1.4 6 Norte 27 Noroeste 0.4 -- -- 96
2017-12-01 07:00:00 1.5 8 Norte 20 Norte 0.2 -- -- 96
2017-12-01 06:00:00 1.3 9 Norte 24 Nordeste 0 -- -- 96
2017-12-01 05:00:00 1.2 6 Norte 23 Nordeste 0.4 -- -- 96
2017-12-01 04:00:00 0.8 5 Norte 17 Noroeste 0.2 -- -- 96
2017-12-01 03:00:00 0.6 5 Norte 15 Norte 0.2 -- -- 96
2017-12-01 02:00:00 0.7 5 Noroeste 16 Noroeste 0 -- -- 95
2017-12-01 01:00:00 0.6 6 Norte 22 Noroeste 0 -- -- 94
2017-12-01 00:00:00 0.5 6 Norte 19 Noroeste 0 -- -- 94
2017-11-30 23:00:00 0.3 5 Norte 16 Norte 0.2 -- -- 95
2017-11-30 22:00:00 0.8 3 Norte 16 Norte 0 -- -- 92
2017-11-30 21:00:00 0.8 6 Norte 23 Norte 0 -- -- 95
2017-11-30 20:00:00 0.8 5 Norte 13 Norte 0 -- -- 96
2017-11-30 19:00:00 0.8 6 Norte 14 Nordeste 0 -- -- 95
2017-11-30 18:00:00 1 4 Norte 15 Norte 0.2 -- -- 94
2017-11-30 17:00:00 1.8 4 Norte 14 Norte 0 -- -- 90
2017-11-30 16:00:00 2 5 Norte 12 Nordeste 0 -- -- 87
2017-11-30 15:00:00 2.2 4 Nordeste 14 Norte 0 -- -- 88
2017-11-30 14:00:00 2.8 5 Norte 16 Norte 0 -- -- 84
2017-11-30 13:00:00 3.3 6 Norte 13 Nordeste 0 -- -- 88
2017-11-30 12:00:00 1.1 4 Norte 9 Norte 0 -- -- 95
2017-11-30 11:00:00 2.5 3 Sur 12 Norte 0 -- -- 91
2017-11-30 10:00:00 -0.9 0 Calma 8 Noroeste 0 -- -- 95
2017-11-30 09:00:00 -2.3 0 Calma 6 Noroeste 0 -- -- 97
2017-11-30 08:00:00 -2.7 2 Noroeste 9 Norte 0 -- -- 96
2017-11-30 07:00:00 -2.8 2 Norte 5 Nordeste 0 -- -- 97
2017-11-30 06:00:00 -3 2 Noroeste 8 Norte 0 -- -- 95
2017-11-30 05:00:00 -2.6 3 Noroeste 6 Norte 0 -- -- 96
2017-11-30 04:00:00 -2 3 Noroeste 7 Nordeste 0 -- -- 96
2017-11-30 03:00:00 -2.9 3 Noroeste 9 Noroeste 0 -- -- 96
2017-11-30 02:00:00 -2.3 3 Sudeste 13 Sudeste 0 -- -- 94
2017-11-30 01:00:00 -2.1 0 Calma 11 Norte 0 -- -- 94
2017-11-30 00:00:00 -1.2 6 Norte 9 Noroeste 0 -- -- 90
2017-11-29 23:00:00 -0.4 7 Norte 16 Norte 0 -- -- 86
2017-11-29 22:00:00 -0.5 6 Norte 17 Norte 0 -- -- 95
2017-11-29 21:00:00 -0.4 6 Norte 16 Norte 0 -- -- 93
2017-11-29 20:00:00 -0.4 7 Norte 16 Norte 0 -- -- 92
2017-11-29 19:00:00 -0.1 10 Norte 20 Norte 0.2 -- -- 94
2017-11-29 18:00:00 0.1 8 Norte 17 Norte 0.2 -- -- 94
2017-11-29 17:00:00 0.8 6 Norte 18 Noroeste 0 -- -- 92
2017-11-29 16:00:00 2.1 7 Norte 17 Nordeste 0 -- -- 85
2017-11-29 15:00:00 4.4 6 Norte 13 Norte 0 -- -- 77
2017-11-29 14:00:00 3.2 6 Norte 15 Norte 0 -- -- 85
2017-11-29 13:00:00 2.5 5 Norte 13 Norte 0.4 -- -- 86
2017-11-29 12:00:00 0.4 6 Norte 15 Nordeste 0.8 -- -- 95
2017-11-29 11:00:00 1.5 4 Norte 13 Norte 0 -- -- 96
2017-11-29 10:00:00 0.4 8 Norte 17 Nordeste 0.2 -- -- 97
2017-11-29 09:00:00 0.7 6 Norte 15 Norte 0.4 -- -- 96
2017-11-29 08:00:00 0.9 5 Norte 13 Norte 0.4 -- -- 95
2017-11-29 07:00:00 0.8 3 Norte 10 Norte 0 -- -- 93
2017-11-29 06:00:00 0.7 6 Norte 15 Norte 0 -- -- 94
2017-11-29 05:00:00 0.8 6 Norte 14 Noroeste 0 -- -- 94
2017-11-29 04:00:00 1.1 5 Noroeste 13 Norte 0 -- -- 89
2017-11-29 03:00:00 1.7 6 Noroeste 20 Norte 0 -- -- 92
2017-11-29 02:00:00 2.2 7 Norte 17 Norte 0 -- -- 96
2017-11-29 01:00:00 2.5 8 Norte 15 Norte 0.2 -- -- 96
2017-11-29 00:00:00 3.1 5 Norte 14 Norte 0.2 -- -- 96
2017-11-28 23:00:00 3.1 6 Norte 16 Noroeste 0.2 -- -- 95
2017-11-28 22:00:00 3.6 4 Norte 13 Norte 0 -- -- 92
2017-11-28 21:00:00 4.1 4 Norte 9 Norte 0 -- -- 87
2017-11-28 20:00:00 4.3 4 Norte 16 Norte 0 -- -- 83
2017-11-28 19:00:00 4.2 6 Norte 13 Noroeste 0 -- -- 79
2017-11-28 18:00:00 4.2 8 Norte 14 Norte 0 -- -- 70
2017-11-28 17:00:00 5.2 8 Norte 15 Norte 0 -- -- 65
2017-11-28 16:00:00 7.7 8 Norte 19 Oeste 0 -- -- 56
2017-11-28 15:00:00 8.9 5 Noroeste 14 Noroeste 0 -- -- 48
2017-11-28 14:00:00 8.2 6 Sur 12 Sudoeste 0 -- -- 53
2017-11-28 13:00:00 8.6 4 Sudeste 12 Sur 0 -- -- 49
2017-11-28 12:00:00 8.2 6 Sur 10 Sur 0 -- -- 48
2017-11-28 11:00:00 8.4 4 Sur 7 Sur 0 -- -- 41
2017-11-28 10:00:00 8.1 2 Sudeste 8 Norte 0 -- -- 42
2017-11-28 09:00:00 4.6 3 Norte 6 Norte 0 -- -- 45
2017-11-28 08:00:00 3 4 Norte 8 Norte 0 -- -- 47
2017-11-28 07:00:00 3.2 3 Norte 8 Noroeste 0 -- -- 43
2017-11-28 06:00:00 3.3 4 Norte 6 Noroeste 0 -- -- 45
2017-11-28 05:00:00 3.6 4 Norte 6 Norte 0 -- -- 43
2017-11-28 04:00:00 3.2 3 Norte 6 Norte 0 -- -- 47
2017-11-28 03:00:00 3.6 0 Calma 8 Norte 0 -- -- 46
2017-11-28 02:00:00 3.9 2 Norte 6 Noroeste 0 -- -- 41
2017-11-28 01:00:00 3.5 0 Calma 5 Noroeste 0 -- -- 49
2017-11-28 00:00:00 3.3 0 Calma 8 Noroeste 0 -- -- 58
2017-11-27 23:00:00 3.8 2 Noroeste 4 Norte 0 -- -- 53
2017-11-27 22:00:00 4.4 2 Norte 7 Norte 0 -- -- 53
2017-11-27 21:00:00 4.3 3 Noroeste 6 Norte 0 -- -- 49
2017-11-27 20:00:00 4.4 3 Norte 7 Norte 0 -- -- 48
2017-11-27 19:00:00 4.6 0 Calma 5 Noroeste 0 -- -- 58
2017-11-27 18:00:00 5.5 3 Noroeste 10 Norte 0 -- -- 58
2017-11-27 17:00:00 7.1 0 Calma 12 Noroeste 0 -- -- 54
2017-11-27 16:00:00 11.7 2 Sur 8 Sur 0 -- -- 40
2017-11-27 15:00:00 10.9 4 Sur 10 Sur 0 -- -- 41
2017-11-27 14:00:00 10.8 5 Sur 12 Sudeste 0 -- -- 41
2017-11-27 13:00:00 10.1 6 Sur 11 Sur 0 -- -- 46
2017-11-27 12:00:00 9.2 5 Sur 8 Sur 0 -- -- 49
2017-11-27 11:00:00 9.3 3 Sur 6 Sur 0 -- -- 45
2017-11-27 10:00:00 7.3 2 Sur 5 Este 0 -- -- 48
2017-11-27 09:00:00 2.8 0 Calma 5 Este 0 -- -- 49
2017-11-27 08:00:00 1.8 3 Este 6 Sudeste 0 -- -- 56
2017-11-27 07:00:00 1.8 3 Nordeste 6 Este 0 -- -- 58
2017-11-27 06:00:00 2 0 Calma 8 Este 0 -- -- 54
2017-11-27 05:00:00 2.6 3 Noroeste 8 Noroeste 0 -- -- 47
2017-11-27 04:00:00 2.9 0 Calma 5 Sudeste 0 -- -- 49
2017-11-27 03:00:00 2.9 3 Este 10 Sur 0 -- -- 55
2017-11-27 02:00:00 4.1 2 Sudeste 10 Sur 0 -- -- 49
2017-11-27 01:00:00 3.3 2 Norte 10 Sur 0 -- -- 56
2017-11-27 00:00:00 2.9 0 Calma 8 Noroeste 0 -- -- 61
2017-11-26 23:00:00 2.7 2 Nordeste 11 Sur 0 -- -- 66
2017-11-26 22:00:00 5.1 4 Sudeste 25 Oeste 0 -- -- 55
2017-11-26 21:00:00 5.1 14 Sudoeste 26 Sudoeste 0 -- -- 56
2017-11-26 20:00:00 5.2 7 Oeste 23 Oeste 0 -- -- 57
2017-11-26 19:00:00 4.8 3 Sudoeste 21 Sur 0 -- -- 64
2017-11-26 18:00:00 6.3 13 Sudoeste 22 Sudoeste 0 -- -- 53
2017-11-26 17:00:00 4.5 3 Noroeste 6 Noroeste 0 -- -- 71
2017-11-26 16:00:00 8.9 3 Sudeste 13 Sur 0 -- -- 51
2017-11-26 15:00:00 10 8 Sudoeste 24 Sur 0 -- -- 44
2017-11-26 14:00:00 9.1 17 Sur 36 Sudeste 0 -- -- 40
2017-11-26 13:00:00 6.9 14 Sur 23 Sur 0 -- -- 65
2017-11-26 12:00:00 5.8 10 Sur 21 Sur 0 -- -- 68
2017-11-26 11:00:00 6.3 5 Sudeste 10 Sur 0 -- -- 68
2017-11-26 10:00:00 5.9 2 Sudeste 8 Sur 0 -- -- 68
2017-11-26 09:00:00 1.5 2 Este 9 Sudeste 0 -- -- 86
2017-11-26 08:00:00 0.6 2 Este 8 Sudeste 0 -- -- 89
2017-11-26 07:00:00 0.2 4 Este 8 Sudeste 0 -- -- 92
2017-11-26 06:00:00 0.4 2 Este 6 Noroeste 0 -- -- 92
2017-11-26 05:00:00 0.9 2 Sudeste 8 Sur 0 -- -- 96
2017-11-26 04:00:00 1 0 Calma 7 Sur 0 -- -- 98
2017-11-26 03:00:00 1 0 Calma 5 Noroeste 0 -- -- 99
2017-11-26 02:00:00 -0.7 0 Calma 4 Este 0 -- -- 97
2017-11-26 01:00:00 -0.4 2 Norte 6 Noroeste 0 -- -- 97
2017-11-26 00:00:00 0.4 0 Calma 5 Norte 0 -- -- 97
2017-11-25 23:00:00 0.7 2 Noroeste 5 Noroeste 0 -- -- 96
2017-11-25 22:00:00 1.1 0 Calma 6 Noroeste 0 -- -- 96
2017-11-25 21:00:00 1.8 0 Calma 8 Norte 0 -- -- 96
2017-11-25 20:00:00 1.5 3 Norte 10 Norte 0 -- -- 95
2017-11-25 19:00:00 2.1 6 Norte 12 Norte 0 -- -- 93
2017-11-25 18:00:00 3.3 3 Norte 12 Norte 0 -- -- 90
2017-11-25 17:00:00 4.5 6 Norte 14 Noroeste 0 -- -- 91
2017-11-25 16:00:00 5.3 4 Norte 13 Noroeste 0 -- -- 89
2017-11-25 15:00:00 5.7 5 Norte 13 Nordeste 0 -- -- 86
2017-11-25 14:00:00 5.7 5 Norte 14 Norte 0 -- -- 93
2017-11-25 13:00:00 5.5 6 Norte 12 Nordeste 0 -- -- 93
2017-11-25 12:00:00 5.1 5 Norte 13 Nordeste 0 -- -- 97
2017-11-25 11:00:00 4.7 6 Norte 13 Nordeste 0 -- -- 96
2017-11-25 10:00:00 4 5 Norte 12 Norte 0 -- -- 98
2017-11-25 09:00:00 3.8 6 Norte 14 Norte 0.2 -- -- 98
2017-11-25 08:00:00 4 6 Norte 12 Noroeste 0 -- -- 98
2017-11-25 07:00:00 4.2 5 Norte 12 Noroeste 0 -- -- 97
2017-11-25 06:00:00 4.4 5 Norte 14 Norte 0 -- -- 96
2017-11-25 05:00:00 4.9 5 Norte 15 Norte 0 -- -- 95
2017-11-25 04:00:00 4.7 8 Norte 21 Nordeste 0.2 -- -- 97
2017-11-25 03:00:00 5.6 7 Norte 17 Norte 0.2 -- -- 97
2017-11-25 02:00:00 6.1 6 Norte 13 Nordeste 1.4 -- -- 97
2017-11-25 01:00:00 6.6 9 Norte 18 Nordeste 3.8 -- -- 96
2017-11-25 00:00:00 7.1 9 Norte 21 Norte 4.2 -- -- 96
2017-11-24 23:00:00 8 4 Norte 14 Norte 4 -- -- 96
2017-11-24 22:00:00 8.4 4 Norte 12 Noroeste 1.2 -- -- 95
2017-11-24 21:00:00 9 4 Sur 15 Sudoeste 2.4 -- -- 95
2017-11-24 20:00:00 8.8 5 Sur 17 Sudeste 1.6 -- -- 96
2017-11-24 19:00:00 8.6 0 Calma 7 Sur 1.8 -- -- 95
2017-11-24 18:00:00 8.9 0 Calma 9 Sur 0.8 -- -- 93
2017-11-24 17:00:00 9.3 4 Sudoeste 17 Sudoeste 0.8 -- -- 90
2017-11-24 16:00:00 9.5 6 Sudoeste 16 Noroeste 1.8 -- -- 90
2017-11-24 15:00:00 10 3 Sudeste 10 Oeste 0.2 -- -- 92
2017-11-24 14:00:00 9.9 3 Sur 9 Noroeste 0.8 -- -- 94
2017-11-24 13:00:00 10.1 2 Sudeste 7 Norte 1.6 -- -- 94
2017-11-24 12:00:00 9.7 2 Sur 9 Sur 0.2 -- -- 94
2017-11-24 11:00:00 9.6 5 Sur 10 Sur 0 -- -- 94
2017-11-24 10:00:00 9.3 4 Sur 10 Sudeste 0 -- -- 93
2017-11-24 09:00:00 8.9 5 Sur 12 Sudoeste 0 -- -- 93
2017-11-24 08:00:00 8.8 7 Oeste 14 Sudoeste 0.2 -- -- 91
2017-11-24 07:00:00 8.6 5 Oeste 15 Oeste 0.2 -- -- 93
2017-11-24 06:00:00 8.5 4 Sudoeste 15 Sudoeste 1.2 -- -- 93
2017-11-24 05:00:00 8.6 0 Calma 22 Sudoeste 0.6 -- -- 91
2017-11-24 04:00:00 9 12 Sudoeste 36 Sur 0.2 -- -- 88
2017-11-24 03:00:00 9.7 16 Sur 34 Sur 0 -- -- 81
2017-11-24 02:00:00 9.2 8 Sur 30 Sur 0.2 -- -- 87
2017-11-24 01:00:00 9.2 17 Sur 26 Sudoeste 0.2 -- -- 87
2017-11-24 00:00:00 10.3 15 Sur 27 Sudeste 0.2 -- -- 78
2017-11-23 23:00:00 11.3 15 Sudoeste 24 Sur 0 -- -- 69
2017-11-23 22:00:00 10.7 8 Sudoeste 28 Sudoeste 0.2 -- -- 74
2017-11-23 21:00:00 10.3 10 Sur 23 Sudoeste 0 -- -- 74
2017-11-23 20:00:00 11.1 10 Sudoeste 35 Sur 0 -- -- 67
2017-11-23 19:00:00 11.5 12 Sudoeste 34 Sur 0 -- -- 76
2017-11-23 18:00:00 11.7 8 Sudoeste 27 Sudeste 0.2 -- -- 84
2017-11-23 17:00:00 13.4 13 Sudoeste 31 Sudoeste 0 -- -- 69
2017-11-23 16:00:00 13.7 13 Sur 42 Sur 0 -- -- 65
2017-11-23 15:00:00 13.7 20 Sur 44 Sur 0 -- -- 60
2017-11-23 14:00:00 14.2 18 Sur 43 Sur 0 -- -- 57
2017-11-23 13:00:00 13.6 20 Sur 42 Sur 0 -- -- 64
2017-11-23 12:00:00 12.6 12 Sur 41 Sur 0 -- -- 67
2017-11-23 11:00:00 12.9 9 Sur 29 Oeste 0 -- -- 66
2017-11-23 10:00:00 11.5 12 Sudoeste 29 Noroeste 0 -- -- 72
2017-11-23 09:00:00 9.8 12 Sudoeste 29 Sudoeste 0 -- -- 81
2017-11-23 08:00:00 9.8 7 Sudoeste 22 Sudoeste 0 -- -- 82
2017-11-23 07:00:00 10 8 Sudoeste 28 Sur 0 -- -- 83
2017-11-23 06:00:00 9.6 8 Sur 26 Sur 0 -- -- 87
2017-11-23 05:00:00 8.4 14 Sur 32 Sur 0 -- -- 89
2017-11-23 04:00:00 8.2 16 Sur 33 Sur 0.6 -- -- 88
2017-11-23 03:00:00 8.2 17 Sur 33 Sur 0.6 -- -- 85
2017-11-23 02:00:00 9.1 13 Sur 45 Sur 0.2 -- -- 78
2017-11-23 01:00:00 9 15 Sur 50 Sur 0 -- -- 76
2017-11-23 00:00:00 9.1 12 Sur 25 Sur 0.4 -- -- 80
2017-11-22 23:00:00 8.7 12 Sur 38 Sur 2.4 -- -- 82
2017-11-22 22:00:00 11.3 10 Sudoeste 49 Sur 0 -- -- 55
2017-11-22 21:00:00 11.6 17 Sur 56 Sudeste 0 -- -- 45
2017-11-22 20:00:00 11.9 18 Sur 51 Sur 0 -- -- 41
2017-11-22 19:00:00 12.5 26 Sur 64 Sur 0 -- -- 42
2017-11-22 18:00:00 13.1 24 Sur 61 Sur 0 -- -- 41
2017-11-22 17:00:00 12.7 23 Sur 62 Sur 0 -- -- 44
2017-11-22 16:00:00 12.7 29 Sur 54 Sur 0 -- -- 46
2017-11-22 15:00:00 14 18 Sudoeste 49 Noroeste 0 -- -- 43
2017-11-22 14:00:00 13.8 23 Sudoeste 49 Sudoeste 0 -- -- 41
2017-11-22 13:00:00 14.1 19 Sudoeste 61 Sur 0 -- -- 38
2017-11-22 12:00:00 11.6 23 Sur 45 Sur 0 -- -- 45
2017-11-22 11:00:00 10.6 21 Sur 45 Sur 0 -- -- 42
2017-11-22 10:00:00 11.9 21 Sur 42 Sur 0 -- -- 39
2017-11-22 09:00:00 9.8 23 Sur 46 Sur 0 -- -- 44
2017-11-22 08:00:00 9.2 14 Sudoeste 33 Oeste 0 -- -- 45
2017-11-22 07:00:00 9.1 13 Sudoeste 31 Sur 0 -- -- 45
2017-11-22 06:00:00 9.2 12 Sudoeste 33 Sudoeste 0 -- -- 45
2017-11-22 05:00:00 10 18 Sudoeste 39 Sudoeste 0 -- -- 41
2017-11-22 04:00:00 10.1 17 Sudoeste 38 Sudoeste 0 -- -- 40
2017-11-22 03:00:00 9.8 13 Sudoeste 37 Sur 0 -- -- 40
2017-11-22 02:00:00 9.9 16 Sur 33 Sur 0 -- -- 39
2017-11-22 01:00:00 9.5 14 Sudoeste 37 Sur 0 -- -- 39
2017-11-22 00:00:00 9.5 18 Sur 35 Sur 0 -- -- 39
2017-11-21 23:00:00 9.2 10 Sur 28 Sur 0 -- -- 40
2017-11-21 22:00:00 10.6 15 Sur 34 Sur 0 -- -- 35
2017-11-21 21:00:00 11.1 14 Sur 31 Sur 0 -- -- 33
2017-11-21 20:00:00 11.1 14 Sudoeste 27 Sur 0 -- -- 32
2017-11-21 19:00:00 11.6 15 Sur 28 Sur 0 -- -- 31
2017-11-21 18:00:00 11.7 14 Sudoeste 25 Sur 0 -- -- 32
2017-11-21 17:00:00 12.2 15 Sur 25 Sur 0 -- -- 31
2017-11-21 16:00:00 14.5 13 Sudoeste 27 Sur 0 -- -- 28
2017-11-21 15:00:00 14.8 13 Sur 26 Sur 0 -- -- 29
2017-11-21 14:00:00 14.4 14 Sur 27 Sur 0 -- -- 31
2017-11-21 13:00:00 14.7 11 Sur 21 Sur 0 -- -- 30
2017-11-21 12:00:00 15.2 6 Sudeste 15 Sudeste 0 -- -- 29
2017-11-21 11:00:00 13.2 7 Sur 18 Sur 0 -- -- 33
2017-11-21 10:00:00 12.7 7 Sur 27 Sudoeste 0 -- -- 31
2017-11-21 09:00:00 9.8 4 Sur 16 Sur 0 -- -- 35
2017-11-21 08:00:00 8.4 0 Calma 11 Sur 0 -- -- 34
2017-11-21 07:00:00 8.2 4 Noroeste 16 Oeste 0 -- -- 33
2017-11-21 06:00:00 8.9 4 Noroeste 15 Sur 0 -- -- 30
2017-11-21 05:00:00 9 5 Sur 13 Sur 0 -- -- 30
2017-11-21 04:00:00 8 3 Sudoeste 16 Oeste 0 -- -- 37
2017-11-21 03:00:00 8.7 4 Noroeste 8 Noroeste 0 -- -- 35
2017-11-21 02:00:00 9.2 3 Noroeste 10 Noroeste 0 -- -- 35
2017-11-21 01:00:00 8.5 0 Calma 9 Noroeste 0 -- -- 36
2017-11-21 00:00:00 9.5 5 Noroeste 9 Oeste 0 -- -- 31
2017-11-20 23:00:00 9.6 3 Noroeste 9 Norte 0 -- -- 34
2017-11-20 22:00:00 9.4 4 Noroeste 9 Noroeste 0 -- -- 41
2017-11-20 21:00:00 9.7 2 Noroeste 5 Noroeste 0 -- -- 35
2017-11-20 20:00:00 10 3 Norte 6 Norte 0 -- -- 36
2017-11-20 19:00:00 11.1 3 Norte 10 Noroeste 0 -- -- 36
2017-11-20 18:00:00 11.7 2 Norte 8 Norte 0 -- -- 37
2017-11-20 17:00:00 13.3 6 Norte 9 Norte 0 -- -- 38
2017-11-20 16:00:00 16.8 2 Norte 11 Sur 0 -- -- 30
2017-11-20 15:00:00 16.6 5 Sur 15 Sur 0 -- -- 26
2017-11-20 14:00:00 16.5 8 Sur 14 Sur 0 -- -- 27
2017-11-20 13:00:00 15.7 9 Sur 14 Sur 0 -- -- 28
2017-11-20 12:00:00 15.5 7 Sur 12 Sur 0 -- -- 27
2017-11-20 11:00:00 15.6 5 Sur 10 Sur 0 -- -- 27
2017-11-20 10:00:00 15.6 2 Sur 6 Sudeste 0 -- -- 31
2017-11-20 09:00:00 11.3 2 Noroeste 6 Noroeste 0 -- -- 34
2017-11-20 08:00:00 9.2 4 Norte 8 Noroeste 0 -- -- 37
2017-11-20 07:00:00 10.1 3 Noroeste 9 Oeste 0 -- -- 36
2017-11-20 06:00:00 9.8 4 Noroeste 8 Norte 0 -- -- 38
2017-11-20 05:00:00 10 5 Norte 10 Norte 0 -- -- 36
2017-11-20 04:00:00 9.9 3 Noroeste 15 Sudeste 0 -- -- 35
2017-11-20 03:00:00 10.5 4 Noroeste 7 Norte 0 -- -- 38
2017-11-20 02:00:00 10.1 4 Noroeste 8 Noroeste 0 -- -- 42
2017-11-20 01:00:00 9.4 2 Norte 6 Nordeste 0 -- -- 48
2017-11-20 00:00:00 10.2 2 Nordeste 6 Noroeste 0 -- -- 47
2017-11-19 23:00:00 10.1 4 Noroeste 8 Norte 0 -- -- 50
2017-11-19 22:00:00 10.6 3 Noroeste 5 Noroeste 0 -- -- 42
2017-11-19 21:00:00 10.6 3 Noroeste 5 Norte 0 -- -- 54
2017-11-19 20:00:00 10.6 3 Norte 6 Norte 0 -- -- 54
2017-11-19 19:00:00 11.1 4 Norte 9 Noroeste 0 -- -- 54
2017-11-19 18:00:00 11.2 4 Noroeste 7 Noroeste 0 -- -- 58
2017-11-19 17:00:00 13.2 4 Norte 10 Norte 0 -- -- 47
2017-11-19 16:00:00 17.9 2 Sudoeste 9 Sudoeste 0 -- -- 28
2017-11-19 15:00:00 17.3 6 Sur 13 Sur 0 -- -- 33
2017-11-19 14:00:00 16.9 7 Sur 14 Sur 0 -- -- 35
2017-11-19 13:00:00 16.7 6 Sur 11 Sur 0 -- -- 37
2017-11-19 12:00:00 15.7 5 Sur 8 Sur 0 -- -- 41
2017-11-19 11:00:00 15.2 3 Sur 6 Sur 0 -- -- 42
2017-11-19 10:00:00 15.1 0 Calma 4 Sur 0 -- -- 43
2017-11-19 09:00:00 9.2 0 Calma 6 Noroeste 0 -- -- 51
2017-11-19 08:00:00 7.4 0 Calma 4 Sudeste 0 -- -- 58
2017-11-19 07:00:00 8.6 0 Calma 4 Noroeste 0 -- -- 55
2017-11-19 06:00:00 8.6 0 Calma 4 Este 0 -- -- 51
2017-11-19 05:00:00 8.8 0 Calma 3 Norte 0 -- -- 47
2017-11-19 04:00:00 8.3 0 Calma 4 Sudeste 0 -- -- 50
2017-11-19 03:00:00 8 3 Sudeste 6 Sudeste 0 -- -- 55
2017-11-19 02:00:00 8.9 2 Nordeste 8 Sudoeste 0 -- -- 52
2017-11-19 01:00:00 9 2 Nordeste 7 Sur 0 -- -- 52
2017-11-19 00:00:00 10.8 0 Calma 9 Sudoeste 0 -- -- 45
2017-11-18 23:00:00 10.4 2 Norte 7 Noroeste 0 -- -- 46
2017-11-18 22:00:00 10.4 4 Noroeste 7 Noroeste 0 -- -- 47
2017-11-18 21:00:00 8.2 0 Calma 3 Sudeste 0 -- -- 64
2017-11-18 20:00:00 8.1 0 Calma 3 Sur 0 -- -- 64
2017-11-18 19:00:00 8.8 0 Calma 4 Noroeste 0 -- -- 60
2017-11-18 18:00:00 9.8 2 Noroeste 4 Noroeste 0 -- -- 62
2017-11-18 17:00:00 11.3 2 Norte 5 Norte 0 -- -- 54
2017-11-18 16:00:00 15.2 4 Sur 7 Sudoeste 0 -- -- 42
2017-11-18 15:00:00 16 4 Sur 15 Sur 0 -- -- 41
2017-11-18 14:00:00 16.1 10 Sur 21 Sur 0 -- -- 34
2017-11-18 13:00:00 16 7 Sur 19 Sur 0 -- -- 38
2017-11-18 12:00:00 15.3 8 Sur 13 Sur 0 -- -- 43
2017-11-18 11:00:00 14.2 5 Sur 7 Sudeste 0 -- -- 43
2017-11-18 10:00:00 13.4 3 Sudeste 5 Sudeste 0 -- -- 43
2017-11-18 09:00:00 10.3 0 Calma 8 Sudeste 0 -- -- 48
2017-11-18 08:00:00 7.9 2 Nordeste 7 Sur 0 -- -- 54
2017-11-18 07:00:00 7.5 3 Este 8 Este 0 -- -- 56
2017-11-18 06:00:00 7.7 2 Este 8 Sur 0 -- -- 55
2017-11-18 05:00:00 10 5 Noroeste 16 Sur 0 -- -- 47
2017-11-18 04:00:00 10.5 3 Este 13 Sudoeste 0 -- -- 45
2017-11-18 03:00:00 9.9 3 Sudoeste 9 Sur 0 -- -- 48
2017-11-18 02:00:00 8.1 3 Sur 9 Sudeste 0 -- -- 58
2017-11-18 01:00:00 8.5 0 Calma 6 Sur 0 -- -- 56
2017-11-18 00:00:00 9.1 0 Calma 5 Oeste 0 -- -- 54
2017-11-17 23:00:00 9.4 0 Calma 3 Sur 0 -- -- 51
2017-11-17 22:00:00 7.1 0 Calma 2 Noroeste 0 -- -- 76
2017-11-17 21:00:00 7.2 0 Calma 3 Noroeste 0 -- -- 71
2017-11-17 20:00:00 7.6 0 Calma 3 Nordeste 0 -- -- 69
2017-11-17 19:00:00 8.1 0 Calma 3 Noroeste 0 -- -- 67
2017-11-17 18:00:00 8.9 0 Calma 4 Nordeste 0 -- -- 67
2017-11-17 17:00:00 10.4 0 Calma 4 Sudoeste 0 -- -- 60
2017-11-17 16:00:00 13.3 3 Sur 5 Sur 0 -- -- 58
2017-11-17 15:00:00 14.3 3 Sur 9 Sur 0 -- -- 55
2017-11-17 14:00:00 16.4 7 Sur 13 Sur 0 -- -- 39
2017-11-17 13:00:00 15.8 7 Sur 15 Sudeste 0 -- -- 36
2017-11-17 12:00:00 15.5 4 Sur 10 Sur 0 -- -- 44
2017-11-17 11:00:00 14.3 4 Sur 9 Sur 0 -- -- 46
2017-11-17 10:00:00 14.7 0 Calma 5 Sudeste 0 -- -- 41
2017-11-17 09:00:00 10.2 3 Este 5 Norte 0 -- -- 48
2017-11-17 08:00:00 9.7 3 Noroeste 8 Noroeste 0 -- -- 47
2017-11-17 07:00:00 9.7 2 Norte 8 Norte 0 -- -- 51
2017-11-17 06:00:00 8.7 2 Nordeste 8 Sudeste 0 -- -- 55
2017-11-17 05:00:00 8.5 3 Este 6 Sudeste 0 -- -- 55
2017-11-17 04:00:00 9.3 3 Este 6 Noroeste 0 -- -- 52
2017-11-17 03:00:00 9.4 0 Calma 5 Noroeste 0 -- -- 52
2017-11-17 02:00:00 9.6 2 Sudeste 5 Norte 0 -- -- 53
2017-11-17 01:00:00 9.8 0 Calma 5 Este 0 -- -- 54
2017-11-17 00:00:00 9.9 0 Calma 5 Norte 0 -- -- 57
2017-11-16 23:00:00 10.5 3 Noroeste 4 Noroeste 0 -- -- 54
2017-11-16 22:00:00 9.4 0 Calma 4 Noroeste 0 -- -- 62
2017-11-16 21:00:00 9.8 2 Norte 4 Noroeste 0 -- -- 60
2017-11-16 20:00:00 10.3 4 Norte 7 Noroeste 0 -- -- 59
2017-11-16 19:00:00 10.7 4 Norte 8 Norte 0 -- -- 59
2017-11-16 18:00:00 11.5 4 Noroeste 10 Noroeste 0 -- -- 58
2017-11-16 17:00:00 12.9 6 Norte 13 Noroeste 0 -- -- 53
2017-11-16 16:00:00 16.2 3 Sudoeste 9 Sur 0 -- -- 44
2017-11-16 15:00:00 17.2 4 Sur 9 Sur 0 -- -- 41
2017-11-16 14:00:00 18 4 Sudoeste 10 Sur 0 -- -- 34
2017-11-16 13:00:00 17.2 6 Sur 9 Sur 0 -- -- 35
2017-11-16 12:00:00 16.3 4 Sur 9 Sur 0 -- -- 40
2017-11-16 11:00:00 15.1 4 Sur 6 Sudoeste 0 -- -- 38
2017-11-16 10:00:00 13.4 0 Calma 8 Este 0 -- -- 40
2017-11-16 09:00:00 10 2 Este 6 Este 0 -- -- 47
2017-11-16 08:00:00 8.1 2 Este 5 Sudeste 0 -- -- 53
2017-11-16 07:00:00 7.6 0 Calma 3 Este 0 -- -- 61
2017-11-16 06:00:00 8.1 0 Calma 5 Sur 0 -- -- 59
2017-11-16 05:00:00 7.9 0 Calma 9 Sur 0 -- -- 60
2017-11-16 04:00:00 7.9 3 Sudeste 8 Sudeste 0 -- -- 59
2017-11-16 03:00:00 8.5 3 Este 9 Noroeste 0 -- -- 56
2017-11-16 02:00:00 9.8 3 Nordeste 9 Este 0 -- -- 49
2017-11-16 01:00:00 8.7 3 Este 9 Este 0 -- -- 57
2017-11-16 00:00:00 11.4 3 Este 12 Sur 0 -- -- 49
2017-11-15 23:00:00 10.8 3 Noroeste 7 Noroeste 0 -- -- 49
2017-11-15 22:00:00 9.1 3 Norte 5 Noroeste 0 -- -- 66
2017-11-15 21:00:00 9.1 2 Norte 11 Norte 0 -- -- 66
2017-11-15 20:00:00 9.5 6 Noroeste 11 Norte 0 -- -- 65
2017-11-15 19:00:00 10.3 8 Norte 12 Noroeste 0 -- -- 58
2017-11-15 18:00:00 11.5 5 Norte 10 Noroeste 0 -- -- 57
2017-11-15 17:00:00 12.4 4 Norte 9 Noroeste 0 -- -- 56
2017-11-15 16:00:00 16.1 3 Sudoeste 7 Sur 0 -- -- 44
2017-11-15 15:00:00 16.1 4 Sudoeste 8 Sur 0 -- -- 42
2017-11-15 14:00:00 16.2 4 Sur 10 Sur 0 -- -- 41
2017-11-15 13:00:00 17 7 Sur 18 Sur 0 -- -- 35
2017-11-15 12:00:00 16.4 12 Sur 30 Sur 0 -- -- 32
2017-11-15 11:00:00 16 10 Sur 28 Sur 0 -- -- 29
2017-11-15 10:00:00 14.6 13 Sur 28 Sur 0 -- -- 31
2017-11-15 09:00:00 11.9 10 Sur 28 Sur 0 -- -- 41
2017-11-15 08:00:00 11.2 9 Sur 30 Sur 0 -- -- 43
2017-11-15 07:00:00 11.3 7 Sur 20 Sudeste 0 -- -- 43
2017-11-15 06:00:00 11.6 8 Sur 18 Sudoeste 0 -- -- 43
2017-11-15 05:00:00 11.7 5 Sur 15 Sudoeste 0 -- -- 43
2017-11-15 04:00:00 10.9 4 Sudeste 17 Sudoeste 0 -- -- 47
2017-11-15 03:00:00 12.2 4 Oeste 22 Sur 0 -- -- 42
2017-11-15 02:00:00 12.2 7 Sur 24 Sur 0 -- -- 42
2017-11-15 01:00:00 11 9 Sur 23 Sur 0 -- -- 46
2017-11-15 00:00:00 11.3 12 Sur 22 Sur 0 -- -- 46